Clayton Village, Mississippi
Current Conditions -  °F | °C
As of 4:50 PM on Thursday 20 Nov 2014 (Local Time) from KGTR Reporting Station
Broken Clouds Broken Clouds  
Wind Chill: 57°   Ceiling: 8000
Heat Index: 57°   Visibility: 10mi
Dew Point: 43°   Wind: 0mph
Humidity: 59%   Direction: NA
Pressure: 30.2"   Gusts: NA
Location:  33.4256°N, 88.8438°W
Report Text: KGTR 202250Z 00000KT 10SM SCT041 BKN080 14/06 A3020
Loading
Personal Weather Stations






























Interactive Weather Map New forecast layout! Learn more

10-Day Weather Forecast

Advertisements
Track Severe Weather on mobile